Time;durP1;ratioP1;P1;durP2;ratioP2;P2;SDS_P1;SDS_P2;PMS_P1;PMS_P2;Temp;Humidity;BMP_temperature;BMP_pressure;BME280_temperature;BME280_humidity;BME280_pressure;Samples;Min_cycle;Max_cycle;Signal;HPM_P1;HPM_P2
2022/02/14 00:00:16;;;;;;;;;;;;;;;-144.99;62.88;52578.53;5076095;28;19975;-59
2022/02/14 00:02:43;;;;;;;;;;;;;;;-144.99;62.94;52590.78;5069449;28;20458;-58
2022/02/14 00:05:11;;;;;;;;;;;;;;;-144.99;62.65;52582.63;5067848;28;20486;-58
2022/02/14 00:07:38;;;;;;;;;;;;;;;-144.99;62.45;52656.00;5079500;28;19993;-59
2022/02/14 00:10:05;;;;;;;;;;;;;;;-144.99;62.22;52576.50;5073038;28;19972;-59
2022/02/14 00:12:31;;;;;;;;;;;;;;;-144.99;62.11;52615.25;5076230;28;19977;-60
2022/02/14 00:14:57;;;;;;;;;;;;;;;-144.99;62.13;52582.63;5085225;28;20446;-58
2022/02/14 00:17:24;;;;;;;;;;;;;;;-144.99;62.05;52611.16;5071995;28;20006;-58
2022/02/14 00:19:51;;;;;;;;;;;;;;;-144.99;62.05;52578.53;5081525;28;19992;-58
2022/02/14 00:22:21;;;;;;;;;;;;;;;-144.99;61.95;52590.78;5067199;28;19972;-57
2022/02/14 00:24:48;;;;;;;;;;;;;;;-144.99;61.86;52594.84;5075735;28;20003;-60
2022/02/14 00:27:14;;;;;;;;;;;;;;;-144.99;61.75;52631.53;5076122;28;19992;-59
2022/02/14 00:29:41;;;;;;;;;;;;;;;-144.99;61.74;52572.44;5078802;28;19983;-58
2022/02/14 00:32:07;;;;;;;;;;;;;;;-144.99;61.36;52598.94;5069354;28;19981;-57
2022/02/14 00:34:34;;;;;;;;;;;;;;;-144.99;61.34;52582.63;5080589;28;20003;-59
2022/02/14 00:37:00;;;;;;;;;;;;;;;-144.99;61.44;52562.25;5068611;28;20362;-58
2022/02/14 00:39:28;;;;;;;;;;;;;;;-144.99;61.41;52562.25;5079039;28;19981;-58
2022/02/14 00:41:54;;;;;;;;;;;;;;;-144.99;61.00;52574.47;5069087;28;20055;-59
2022/02/14 00:44:21;;;;;;;;;;;;;;;-144.99;61.20;52615.25;5076814;28;19999;-62
2022/02/14 00:46:47;;;;;;;;;;;;;;;-144.99;61.49;52566.31;5076110;28;19976;-61
2022/02/14 00:49:13;;;;;;;;;;;;;;;-144.99;61.26;52550.00;5076403;28;19988;-62
2022/02/14 00:51:40;;;;;;;;;;;;;;;-144.99;60.88;52611.16;5074047;28;20353;-63
2022/02/14 00:54:06;;;;;;;;;;;;;;;-144.99;60.79;52570.38;5086856;28;20135;-62
2022/02/14 00:56:34;;;;;;;;;;;;;;;-144.99;60.75;52578.53;5070607;28;20038;-61
2022/02/14 00:59:00;;;;;;;;;;;;;;;-144.99;60.68;52582.63;5079632;28;20248;-61
2022/02/14 01:01:28;;;;;;;;;;;;;;;-144.99;60.53;52594.84;5069260;28;20006;-60
2022/02/14 01:03:55;;;;;;;;;;;;;;;-144.99;60.66;52623.38;5076326;28;19998;-60
2022/02/14 01:06:22;;;;;;;;;;;;;;;-144.99;60.57;52521.47;5076570;28;20391;-61
2022/02/14 01:08:48;;;;;;;;;;;;;;;-144.99;60.85;52564.28;5075834;28;19997;-60
2022/02/14 01:11:16;;;;;;;;;;;;;;;-144.99;60.53;52594.84;5065112;28;20312;-60
2022/02/14 01:13:44;;;;;;;;;;;;;;;-144.99;60.67;52550.00;5074802;28;20258;-60
2022/02/14 01:16:10;;;;;;;;;;;;;;;-144.99;60.75;52545.94;5066563;28;20049;-59
2022/02/14 01:18:37;;;;;;;;;;;;;;;-144.99;60.85;52568.34;5072881;28;19977;-60
2022/02/14 01:21:03;;;;;;;;;;;;;;;-144.99;60.89;52594.84;5075697;28;19963;-60
2022/02/14 01:23:29;;;;;;;;;;;;;;;-144.99;60.99;52550.00;5068238;28;19992;-60
2022/02/14 01:25:56;;;;;;;;;;;;;;;-144.99;60.94;52574.47;5068110;28;20003;-62
2022/02/14 01:28:22;;;;;;;;;;;;;;;-144.99;61.12;52615.25;5068263;28;19995;-61
2022/02/14 01:30:50;;;;;;;;;;;;;;;-144.99;61.30;52594.84;5069354;28;19987;-61
2022/02/14 01:33:16;;;;;;;;;;;;;;;-144.99;61.05;52623.38;5079299;28;19988;-60
2022/02/14 01:35:46;;;;;;;;;;;;;;;-144.99;61.54;52588.75;5071427;28;19985;-60
2022/02/14 01:38:12;;;;;;;;;;;;;;;-144.99;61.45;52607.09;5070613;28;20014;-59
2022/02/14 01:40:38;;;;;;;;;;;;;;;-144.99;61.67;52623.38;5067330;28;19976;-59
2022/02/14 01:43:05;;;;;;;;;;;;;;;-144.99;61.67;52594.84;5079561;28;20001;-59
2022/02/14 01:45:31;;;;;;;;;;;;;;;-144.99;61.75;52611.16;5078001;28;19983;-59
2022/02/14 01:47:59;;;;;;;;;;;;;;;-144.99;62.04;52572.44;5069493;28;20002;-60
2022/02/14 01:50:25;;;;;;;;;;;;;;;-144.99;61.97;52623.38;5067615;28;19987;-59
2022/02/14 01:52:54;;;;;;;;;;;;;;;-144.99;62.06;52653.97;5075186;28;20000;-60
2022/02/14 01:55:21;;;;;;;;;;;;;;;-144.99;61.95;52596.88;5079605;28;19975;-59
2022/02/14 01:57:49;;;;;;;;;;;;;;;-144.99;62.02;52570.38;5072148;28;19987;-58
2022/02/14 02:00:17;;;;;;;;;;;;;;;-144.99;62.19;52574.47;5074591;28;20005;-58
2022/02/14 02:02:44;;;;;;;;;;;;;;;-144.99;62.22;52590.78;5068438;28;20026;-60
2022/02/14 02:05:12;;;;;;;;;;;;;;;-144.99;62.20;52611.16;5072021;28;19974;-59
2022/02/14 02:07:39;;;;;;;;;;;;;;;-144.99;62.29;52570.38;5077048;28;19966;-56
2022/02/14 02:10:07;;;;;;;;;;;;;;;-144.99;62.29;52603.00;5071511;28;19978;-58
2022/02/14 02:12:33;;;;;;;;;;;;;;;-144.99;62.54;52623.38;5074079;28;19985;-57
2022/02/14 02:15:00;;;;;;;;;;;;;;;-144.99;62.35;52609.13;5083435;28;19983;-56
2022/02/14 02:17:29;;;;;;;;;;;;;;;-144.99;62.33;52566.31;5070070;28;19977;-60
2022/02/14 02:19:55;;;;;;;;;;;;;;;-144.99;62.64;52564.28;5080646;28;19980;-61
2022/02/14 02:22:23;;;;;;;;;;;;;;;-144.99;62.76;52615.25;5068224;28;19983;-61
2022/02/14 02:24:52;;;;;;;;;;;;;;;-144.99;62.67;52590.78;5076959;28;20071;-61
2022/02/14 02:27:19;;;;;;;;;;;;;;;-144.99;63.13;52574.47;5062633;28;19979;-60
2022/02/14 02:29:45;;;;;;;;;;;;;;;-144.99;62.85;52586.69;5076855;28;19991;-61
2022/02/14 02:32:13;;;;;;;;;;;;;;;-144.99;62.92;52611.16;5069847;28;20079;-57
2022/02/14 02:34:41;;;;;;;;;;;;;;;-144.99;62.84;52615.25;5079449;28;20027;-60
2022/02/14 02:37:08;;;;;;;;;;;;;;;-144.99;63.04;52594.84;5061284;28;19972;-61
2022/02/14 02:39:34;;;;;;;;;;;;;;;-144.99;62.68;52627.47;5076441;28;19990;-60
2022/02/14 02:42:04;;;;;;;;;;;;;;;-144.99;62.44;52574.47;5067352;28;19982;-61
2022/02/14 02:44:32;;;;;;;;;;;;;;;-144.99;62.51;52603.00;5074759;28;20019;-62
2022/02/14 02:46:59;;;;;;;;;;;;;;;-144.99;62.13;52586.69;5073707;28;19976;-61
2022/02/14 02:49:25;;;;;;;;;;;;;;;-144.99;62.42;52582.63;5073546;28;19997;-63
2022/02/14 02:51:52;;;;;;;;;;;;;;;-144.99;62.48;52607.09;5076480;28;19974;-61
2022/02/14 02:54:19;;;;;;;;;;;;;;;-144.99;62.67;52603.00;5071481;28;20503;-63
2022/02/14 02:56:46;;;;;;;;;;;;;;;-144.99;62.53;52582.63;5071198;28;19984;-62
2022/02/14 02:59:14;;;;;;;;;;;;;;;-144.99;62.79;52574.47;5084119;28;19963;-61
2022/02/14 03:01:41;;;;;;;;;;;;;;;-144.99;62.67;52576.50;5070537;28;19982;-60
2022/02/14 03:04:10;;;;;;;;;;;;;;;-144.99;63.03;52611.16;5079889;28;19988;-60
2022/02/14 03:06:37;;;;;;;;;;;;;;;-144.99;63.04;52619.31;5068477;28;19987;-62
2022/02/14 03:09:05;;;;;;;;;;;;;;;-144.99;63.13;52574.47;5076696;28;19995;-61
2022/02/14 03:11:31;;;;;;;;;;;;;;;-144.99;62.68;52603.00;5078132;28;19976;-56
2022/02/14 03:13:57;;;;;;;;;;;;;;;-144.99;63.02;52590.78;5076409;28;19991;-58
2022/02/14 03:16:26;;;;;;;;;;;;;;;-144.99;62.84;52611.16;5074329;28;19978;-58
2022/02/14 03:18:52;;;;;;;;;;;;;;;-144.99;62.94;52539.81;5075887;28;20459;-58
2022/02/14 03:21:19;;;;;;;;;;;;;;;-144.99;63.04;52582.63;5078808;28;19972;-58
2022/02/14 03:23:47;;;;;;;;;;;;;;;-144.99;63.21;52590.78;5069194;28;19998;-59
2022/02/14 03:26:14;;;;;;;;;;;;;;;-144.99;63.24;52623.38;5077311;28;20073;-57
2022/02/14 03:28:40;;;;;;;;;;;;;;;-144.99;63.16;52582.63;5079614;28;19996;-58
2022/02/14 03:31:06;;;;;;;;;;;;;;;-144.99;63.26;52613.19;5077177;28;19982;-57
2022/02/14 03:33:34;;;;;;;;;;;;;;;-144.99;63.26;52603.00;5080176;28;19999;-58
2022/02/14 03:36:01;;;;;;;;;;;;;;;-144.99;63.70;52590.78;5076730;28;20030;-56
2022/02/14 03:38:27;;;;;;;;;;;;;;;-144.99;63.83;52554.09;5080499;28;19983;-56
2022/02/14 03:40:53;;;;;;;;;;;;;;;-144.99;63.74;52586.69;5072077;28;20009;-56
2022/02/14 03:43:20;;;;;;;;;;;;;;;-144.99;63.77;52621.34;5078107;28;20000;-57
2022/02/14 03:45:46;;;;;;;;;;;;;;;-144.99;63.48;52545.94;5083256;28;19976;-57
2022/02/14 03:48:13;;;;;;;;;;;;;;;-144.99;63.60;52594.84;5067744;28;19997;-56
2022/02/14 03:50:41;;;;;;;;;;;;;;;-144.99;63.55;52586.69;5065199;28;19976;-58
2022/02/14 03:53:07;;;;;;;;;;;;;;;-144.99;63.53;52570.38;5080087;28;19994;-58
2022/02/14 03:55:34;;;;;;;;;;;;;;;-144.99;63.84;52627.47;5080095;28;19979;-57
2022/02/14 03:58:00;;;;;;;;;;;;;;;-144.99;63.96;52586.69;5079935;28;19976;-58
2022/02/14 04:00:27;;;;;;;;;;;;;;;-144.99;64.00;52603.00;5077378;28;19982;-57
2022/02/14 04:02:54;;;;;;;;;;;;;;;-144.99;64.32;52603.00;5067496;28;19995;-58
2022/02/14 04:05:20;;;;;;;;;;;;;;;-144.99;64.35;52570.38;5071364;28;19986;-57
2022/02/14 04:07:48;;;;;;;;;;;;;;;-144.99;64.42;52611.16;5076829;28;20365;-57
2022/02/14 04:10:15;;;;;;;;;;;;;;;-144.99;64.69;52582.63;5075436;28;20018;-58
2022/02/14 04:12:42;;;;;;;;;;;;;;;-144.99;64.84;52570.38;5075309;28;20004;-58
2022/02/14 04:15:09;;;;;;;;;;;;;;;-144.99;64.96;52619.31;5059503;28;19979;-59
2022/02/14 04:17:35;;;;;;;;;;;;;;;-144.99;65.09;52609.13;5073374;28;19975;-59
2022/02/14 04:20:03;;;;;;;;;;;;;;;-144.99;65.19;52611.16;5085477;28;20062;-57
2022/02/14 04:22:29;;;;;;;;;;;;;;;-144.99;65.10;52598.94;5065635;28;19990;-56
2022/02/14 04:24:57;;;;;;;;;;;;;;;-144.99;65.24;52611.16;5081140;28;20113;-56
2022/02/14 04:27:24;;;;;;;;;;;;;;;-144.99;65.06;52594.84;5078770;28;19976;-55
2022/02/14 04:29:50;;;;;;;;;;;;;;;-144.99;65.03;52623.38;5078622;28;19990;-61
2022/02/14 04:32:16;;;;;;;;;;;;;;;-144.99;64.90;52635.63;5073848;28;19972;-56
2022/02/14 04:34:43;;;;;;;;;;;;;;;-144.99;64.94;52621.34;5080989;28;20475;-57
2022/02/14 04:37:09;;;;;;;;;;;;;;;-144.99;64.73;52582.63;5064655;28;20360;-56
2022/02/14 04:39:35;;;;;;;;;;;;;;;-144.99;64.76;52611.16;5077465;28;20404;-57
2022/02/14 04:42:03;;;;;;;;;;;;;;;-144.99;64.80;52566.31;5068903;28;19943;-57
2022/02/14 04:44:30;;;;;;;;;;;;;;;-144.99;64.56;52623.38;5077041;28;19998;-56
2022/02/14 04:46:56;;;;;;;;;;;;;;;-144.99;64.17;52594.84;5076338;28;19982;-57
2022/02/14 04:49:22;;;;;;;;;;;;;;;-144.99;64.32;52574.47;5064716;28;20002;-57
2022/02/14 04:51:48;;;;;;;;;;;;;;;-144.99;64.51;52558.16;5073884;28;19982;-57
2022/02/14 04:54:15;;;;;;;;;;;;;;;-144.99;64.76;52552.03;5066531;28;20002;-58
2022/02/14 04:56:41;;;;;;;;;;;;;;;-144.99;64.83;52578.53;5064522;28;19980;-57
2022/02/14 04:59:09;;;;;;;;;;;;;;;-144.99;64.71;52570.38;5081619;28;19971;-58
2022/02/14 05:01:36;;;;;;;;;;;;;;;-144.99;65.10;52594.84;5067649;28;20117;-60
2022/02/14 05:04:03;;;;;;;;;;;;;;;-144.99;65.22;52590.78;5078424;28;20002;-59
2022/02/14 05:06:29;;;;;;;;;;;;;;;-144.99;65.14;52582.63;5088589;22;20018;-66
2022/02/14 05:08:55;;;;;;;;;;;;;;;-144.99;65.32;52596.88;5079322;28;19990;-66
2022/02/14 05:11:23;;;;;;;;;;;;;;;-144.99;65.54;52560.19;5085156;28;19979;-66
2022/02/14 05:13:50;;;;;;;;;;;;;;;-144.99;65.68;52590.78;5079024;28;20026;-67
2022/02/14 05:16:22;;;;;;;;;;;;;;;-144.99;65.64;52582.63;5088970;28;19982;-66
2022/02/14 05:18:48;;;;;;;;;;;;;;;-144.99;65.60;52545.94;5086316;28;19976;-66
2022/02/14 05:21:14;;;;;;;;;;;;;;;-144.99;65.61;52574.47;5092503;28;20048;-66
2022/02/14 05:23:41;;;;;;;;;;;;;;;-144.99;65.54;52570.38;5082848;28;19991;-66
2022/02/14 05:26:07;;;;;;;;;;;;;;;-144.99;65.36;52617.28;5086652;28;20455;-66
2022/02/14 05:28:34;;;;;;;;;;;;;;;-144.99;65.62;52643.78;5092771;28;19978;-66
2022/02/14 05:31:00;;;;;;;;;;;;;;;-144.99;65.53;52541.84;5092933;28;20436;-66
2022/02/14 05:33:28;;;;;;;;;;;;;;;-144.99;65.22;52574.47;5090596;28;19997;-63
2022/02/14 05:35:54;;;;;;;;;;;;;;;-144.99;65.27;52574.47;5086006;28;20073;-62
2022/02/14 05:38:21;;;;;;;;;;;;;;;-144.99;65.42;52582.63;5091451;28;19982;-66
2022/02/14 05:40:47;;;;;;;;;;;;;;;-144.99;65.30;52598.94;5092748;28;19948;-65
2022/02/14 05:43:14;;;;;;;;;;;;;;;-144.99;65.05;52586.69;5085851;28;19993;-65
2022/02/14 05:45:41;;;;;;;;;;;;;;;-144.99;65.28;52586.69;5088079;28;20361;-65
2022/02/14 05:48:07;;;;;;;;;;;;;;;-144.99;65.15;52570.38;5088319;28;19970;-65
2022/02/14 05:50:35;;;;;;;;;;;;;;;-144.99;65.51;52582.63;5092095;28;20072;-65
2022/02/14 05:53:02;;;;;;;;;;;;;;;-144.99;65.41;52611.16;5086677;28;20005;-66
2022/02/14 05:55:28;;;;;;;;;;;;;;;-144.99;65.21;52582.63;5092020;28;19981;-66
2022/02/14 05:57:57;;;;;;;;;;;;;;;-144.99;65.54;52558.16;5089476;28;20488;-65
2022/02/14 06:00:23;;;;;;;;;;;;;;;-144.99;64.97;52570.38;5092613;28;20439;-65
2022/02/14 06:02:50;;;;;;;;;;;;;;;-144.99;64.86;52594.84;5090071;28;19997;-67
2022/02/14 06:05:16;;;;;;;;;;;;;;;-144.99;64.95;52570.38;5078875;28;19976;-66
2022/02/14 06:07:44;;;;;;;;;;;;;;;-144.99;65.22;52566.31;5091759;28;19985;-70
2022/02/14 06:10:11;;;;;;;;;;;;;;;-144.99;64.50;52562.25;5085781;28;19992;-68
2022/02/14 06:12:37;;;;;;;;;;;;;;;-144.99;64.47;52574.47;5091823;28;19976;-66
2022/02/14 06:15:04;;;;;;;;;;;;;;;-144.99;64.37;52592.81;5091045;28;19986;-67
2022/02/14 06:17:31;;;;;;;;;;;;;;;-144.99;63.96;52603.00;5088985;28;20453;-67
2022/02/14 06:19:57;;;;;;;;;;;;;;;-144.99;64.23;52558.16;5089855;28;20442;-67
2022/02/14 06:22:25;;;;;;;;;;;;;;;-144.99;64.05;52537.78;5077080;28;20010;-67
2022/02/14 06:24:53;;;;;;;;;;;;;;;-144.99;63.98;52578.53;5087078;28;20352;-67
2022/02/14 06:27:19;;;;;;;;;;;;;;;-144.99;63.91;52574.47;5082691;28;20443;-67
2022/02/14 06:29:46;;;;;;;;;;;;;;;-144.99;64.38;52594.84;5084459;28;19987;-66
2022/02/14 06:32:14;;;;;;;;;;;;;;;-144.99;64.26;52586.69;5079146;28;19986;-65
2022/02/14 06:34:41;;;;;;;;;;;;;;;-144.99;63.74;52586.69;5086428;28;19990;-66
2022/02/14 06:37:07;;;;;;;;;;;;;;;-144.99;64.10;52588.75;5088340;28;19982;-66
2022/02/14 06:39:33;;;;;;;;;;;;;;;-144.99;63.69;52590.78;5099742;28;19980;-65
2022/02/14 06:42:01;;;;;;;;;;;;;;;-144.99;63.57;52588.75;5091876;28;20004;-66
2022/02/14 06:44:29;;;;;;;;;;;;;;;-144.99;63.87;52570.38;5081445;28;19996;-66
2022/02/14 06:46:56;;;;;;;;;;;;;;;-144.99;63.60;52550.00;5091223;28;20230;-66
2022/02/14 06:49:22;;;;;;;;;;;;;;;-144.99;63.42;52578.53;5099049;28;20183;-66
2022/02/14 06:51:49;;;;;;;;;;;;;;;-144.99;63.24;52615.25;5084794;28;19980;-66
2022/02/14 06:54:15;;;;;;;;;;;;;;;-144.99;63.01;52590.78;5101372;28;19992;-66
2022/02/14 06:56:42;;;;;;;;;;;;;;;-144.99;62.79;52592.81;5098995;28;20044;-66
2022/02/14 06:59:09;;;;;;;;;;;;;;;-144.99;62.35;52570.38;5097551;28;20318;-66
2022/02/14 07:01:36;;;;;;;;;;;;;;;-144.99;62.42;52554.09;5093845;28;20045;-66
2022/02/14 07:04:03;;;;;;;;;;;;;;;-144.99;62.37;52588.75;5091984;28;19995;-66
2022/02/14 07:06:29;;;;;;;;;;;;;;;-144.99;62.39;52566.31;5096852;28;19982;-66
2022/02/14 07:08:56;;;;;;;;;;;;;;;-144.99;62.37;52582.63;5083794;28;19981;-66
2022/02/14 07:11:22;;;;;;;;;;;;;;;-144.99;62.06;52605.03;5094571;28;19990;-68
2022/02/14 07:13:49;;;;;;;;;;;;;;;-144.99;62.09;52558.16;5094845;28;20013;-69
2022/02/14 07:16:17;;;;;;;;;;;;;;;-144.99;62.09;52570.38;5082283;28;20041;-68
2022/02/14 07:18:43;;;;;;;;;;;;;;;-144.99;61.67;52574.47;5081057;28;19977;-67
2022/02/14 07:21:09;;;;;;;;;;;;;;;-144.99;61.64;52603.00;5081930;28;19978;-73
2022/02/14 07:23:36;;;;;;;;;;;;;;;-144.99;61.58;52554.09;5083719;28;19998;-68
2022/02/14 07:26:02;;;;;;;;;;;;;;;-144.99;61.35;52578.53;5081314;28;19978;-71
2022/02/14 07:28:29;;;;;;;;;;;;;;;-144.99;61.47;52607.09;5091133;28;19975;-67
2022/02/14 07:30:55;;;;;;;;;;;;;;;-144.99;61.50;52607.09;5090159;28;20026;-67
2022/02/14 07:33:23;;;;;;;;;;;;;;;-144.99;61.32;52533.69;5088285;28;19990;-68
2022/02/14 07:35:51;;;;;;;;;;;;;;;-144.99;61.22;52578.53;5096019;28;19973;-68
2022/02/14 07:38:18;;;;;;;;;;;;;;;-144.99;61.43;52596.88;5094044;28;19970;-67
2022/02/14 07:40:45;;;;;;;;;;;;;;;-144.99;61.16;52558.16;5091079;28;20349;-67
2022/02/14 07:43:12;;;;;;;;;;;;;;;-144.99;61.18;52558.16;5095121;28;19978;-67
2022/02/14 07:45:38;;;;;;;;;;;;;;;-144.99;61.26;52590.78;5093153;28;19977;-68
2022/02/14 07:48:05;;;;;;;;;;;;;;;-144.99;61.05;52596.88;5098034;28;19974;-67
2022/02/14 07:50:33;;;;;;;;;;;;;;;-144.99;61.09;52576.50;5095794;28;20487;-67
2022/02/14 07:53:00;;;;;;;;;;;;;;;-144.99;61.23;52594.84;5093817;28;19988;-68
2022/02/14 07:55:27;;;;;;;;;;;;;;;-144.99;61.14;52592.81;5095857;28;20230;-68
2022/02/14 07:57:53;;;;;;;;;;;;;;;-144.99;61.43;52598.94;5101122;28;20005;-68
2022/02/14 08:00:22;;;;;;;;;;;;;;;-144.99;61.36;52572.44;5106132;28;19973;-69
2022/02/14 08:02:48;;;;;;;;;;;;;;;-144.99;61.11;52574.47;5098135;28;20543;-68
2022/02/14 08:05:15;;;;;;;;;;;;;;;-144.99;60.98;52590.78;5100615;28;19964;-68
2022/02/14 08:07:43;;;;;;;;;;;;;;;-144.99;61.09;52552.03;5091965;28;20419;-69
2022/02/14 08:10:10;;;;;;;;;;;;;;;-144.99;60.99;52554.09;5086621;28;19986;-68
2022/02/14 08:12:37;;;;;;;;;;;;;;;-144.99;61.07;52600.97;5095503;28;19971;-68
2022/02/14 08:15:04;;;;;;;;;;;;;;;-144.99;60.98;52570.38;5096792;28;20042;-67
2022/02/14 08:17:30;;;;;;;;;;;;;;;-144.99;60.90;52545.94;5099175;28;19960;-68
2022/02/14 08:19:58;;;;;;;;;;;;;;;-144.99;60.89;52574.47;5098634;28;19968;-68
2022/02/14 08:22:25;;;;;;;;;;;;;;;-144.99;60.84;52562.25;5096383;28;20025;-68
2022/02/14 08:24:53;;;;;;;;;;;;;;;-144.99;60.96;52570.38;5097750;28;19971;-68
2022/02/14 08:27:19;;;;;;;;;;;;;;;-144.99;61.05;52537.78;5095651;28;20183;-68
2022/02/14 08:29:46;;;;;;;;;;;;;;;-144.99;60.95;52619.31;5105441;28;19967;-69
2022/02/14 08:32:14;;;;;;;;;;;;;;;-144.99;60.93;52611.16;5093898;28;19953;-68
2022/02/14 08:34:41;;;;;;;;;;;;;;;-144.99;60.99;52517.41;5103037;28;20031;-69
2022/02/14 08:37:08;;;;;;;;;;;;;;;-144.99;60.82;52570.38;5100681;28;19949;-69
2022/02/14 08:39:34;;;;;;;;;;;;;;;-144.99;60.95;52570.38;5103501;28;19949;-69
2022/02/14 08:42:02;;;;;;;;;;;;;;;-144.99;60.92;52582.63;5101743;28;19957;-69
2022/02/14 08:44:29;;;;;;;;;;;;;;;-144.99;60.98;52578.53;5101455;28;19980;-69
2022/02/14 08:46:55;;;;;;;;;;;;;;;-144.99;60.41;52582.63;5099396;28;20026;-68
2022/02/14 08:49:24;;;;;;;;;;;;;;;-144.99;60.64;52519.44;5103318;28;19952;-68
2022/02/14 08:51:50;;;;;;;;;;;;;;;-144.99;60.66;52529.63;5096253;28;19976;-69
2022/02/14 08:54:17;;;;;;;;;;;;;;;-144.99;60.61;52603.00;5092179;28;19976;-68
2022/02/14 08:56:43;;;;;;;;;;;;;;;-144.99;60.68;52543.91;5100321;28;19965;-69
2022/02/14 08:59:13;;;;;;;;;;;;;;;-144.99;60.81;52566.31;5097699;28;20044;-69
2022/02/14 09:01:39;;;;;;;;;;;;;;;-144.99;60.91;52521.47;5086082;28;20002;-68
2022/02/14 09:04:06;;;;;;;;;;;;;;;-144.99;60.77;52554.09;5094865;28;19970;-69
2022/02/14 09:06:32;;;;;;;;;;;;;;;-144.99;60.28;52547.97;5089787;28;19982;-69
2022/02/14 09:08:59;;;;;;;;;;;;;;;-144.99;60.25;52558.16;5095080;28;19948;-69
2022/02/14 09:11:26;;;;;;;;;;;;;;;-144.99;60.09;52521.47;5094837;28;19987;-69
2022/02/14 09:13:53;;;;;;;;;;;;;;;-144.99;60.05;52488.84;5090821;28;19974;-70
2022/02/14 09:16:20;;;;;;;;;;;;;;;-144.99;59.89;52562.25;5094825;28;20436;-70
2022/02/14 09:18:47;;;;;;;;;;;;;;;-144.99;59.94;52545.94;5090542;28;19974;-70
2022/02/14 09:21:13;;;;;;;;;;;;;;;-144.99;59.99;52554.09;5091478;28;19966;-70
2022/02/14 09:23:40;;;;;;;;;;;;;;;-144.99;59.90;52529.63;5086254;28;20080;-70
2022/02/14 09:26:06;;;;;;;;;;;;;;;-144.99;60.39;52497.00;5088013;28;19973;-70
2022/02/14 09:28:33;;;;;;;;;;;;;;;-144.99;59.61;52525.56;5084488;28;20436;-69
2022/02/14 09:30:59;;;;;;;;;;;;;;;-144.99;59.06;52490.91;5091835;28;19983;-69
2022/02/14 09:33:27;;;;;;;;;;;;;;;-144.99;57.49;52460.31;5089594;28;20016;-69
2022/02/14 09:35:54;;;;;;;;;;;;;;;-144.99;56.65;52537.78;5089166;28;19976;-70
2022/02/14 09:38:24;;;;;;;;;;;;;;;-144.99;56.43;52531.66;5088620;28;19989;-69
2022/02/14 09:40:51;;;;;;;;;;;;;;;-144.99;56.23;52490.91;5084911;28;20000;-69
2022/02/14 09:43:17;;;;;;;;;;;;;;;-144.99;56.36;52509.25;5089722;28;19968;-69
2022/02/14 09:45:43;;;;;;;;;;;;;;;-144.99;56.29;52511.28;5085747;28;20404;-69
2022/02/14 09:48:11;;;;;;;;;;;;;;;-144.99;55.64;52501.09;5089634;28;19971;-69
2022/02/14 09:50:40;;;;;;;;;;;;;;;-144.99;55.43;52507.19;5087506;28;20069;-71
2022/02/14 09:53:07;;;;;;;;;;;;;;;-144.99;54.55;52492.94;5088773;28;19987;-71
2022/02/14 09:55:34;;;;;;;;;;;;;;;-144.99;54.41;52501.09;5088874;28;19983;-70
2022/02/14 09:58:01;;;;;;;;;;;;;;;-144.99;53.62;52480.72;5089074;28;20058;-69
2022/02/14 10:00:27;;;;;;;;;;;;;;;-144.99;53.65;52476.63;5091944;28;19975;-70
2022/02/14 10:03:11;;;;;;;;;;;;;;;-144.99;53.72;52478.66;5088064;28;19991;-70
2022/02/14 10:05:49;;;;;;;;;;;;;;;-144.99;52.88;52490.91;5083323;28;19974;-70
2022/02/14 10:08:22;;;;;;;;;;;;;;;-144.99;52.88;52448.09;5081653;28;19975;-69
2022/02/14 10:10:49;;;;;;;;;;;;;;;-144.99;51.85;52456.25;5082145;28;19991;-69
2022/02/14 10:13:28;;;;;;;;;;;;;;;-144.99;51.21;52460.31;5091034;28;20004;-70
2022/02/14 10:15:55;;;;;;;;;;;;;;;-144.99;50.74;52452.16;5081228;28;20029;-72
2022/02/14 10:18:31;;;;;;;;;;;;;;;-144.99;50.40;52439.94;5090869;28;20077;-71
2022/02/14 10:21:15;;;;;;;;;;;;;;;-144.99;50.05;52488.84;5089244;28;19979;-71
2022/02/14 10:23:56;;;;;;;;;;;;;;;-144.99;50.00;52480.72;5078161;28;19997;-69
2022/02/14 10:26:22;;;;;;;;;;;;;;;-144.99;51.05;52476.63;5081075;28;19975;-69
2022/02/14 10:28:49;;;;;;;;;;;;;;;-144.99;51.59;52488.84;5083402;28;20435;-70
2022/02/14 10:31:17;;;;;;;;;;;;;;;-144.99;52.16;52480.72;5090800;28;19996;-70
2022/02/14 10:33:49;;;;;;;;;;;;;;;-144.99;52.81;52523.50;5080050;28;20084;-69
2022/02/14 10:36:23;;;;;;;;;;;;;;;-144.99;53.88;52523.50;5087795;28;19974;-69
2022/02/14 10:38:49;;;;;;;;;;;;;;;-144.99;54.63;52513.31;5091305;28;19975;-70
2022/02/14 10:41:17;;;;;;;;;;;;;;;-144.99;55.43;52501.09;5091287;28;20538;-70
2022/02/14 10:43:44;;;;;;;;;;;;;;;-144.99;55.84;52521.47;5088840;28;20523;-70
2022/02/14 10:46:17;;;;;;;;;;;;;;;-144.99;56.38;52537.78;5088713;28;19973;-70
2022/02/14 10:48:44;;;;;;;;;;;;;;;-144.99;57.18;52501.09;5091111;28;19999;-70
2022/02/14 10:51:16;;;;;;;;;;;;;;;-144.99;57.57;52517.41;5088659;28;20040;-70
2022/02/14 10:53:45;;;;;;;;;;;;;;;-144.99;57.08;52505.16;5085692;28;19996;-70
2022/02/14 10:56:13;;;;;;;;;;;;;;;-144.99;57.01;52490.91;5087545;28;20331;-70
2022/02/14 10:58:40;;;;;;;;;;;;;;;-144.99;56.85;52521.47;5088975;28;19967;-70
2022/02/14 11:01:09;;;;;;;;;;;;;;;-144.99;57.36;52505.16;5085667;28;20435;-70
2022/02/14 11:03:35;;;;;;;;;;;;;;;-144.99;57.95;52513.31;5088075;28;19996;-70
2022/02/14 11:06:03;;;;;;;;;;;;;;;-144.99;58.36;52521.47;5087218;28;19951;-69
2022/02/14 11:08:33;;;;;;;;;;;;;;;-144.99;58.23;52539.81;5078906;22;19995;-68
2022/02/14 11:11:02;;;;;;;;;;;;;;;-144.99;59.00;52509.25;5065939;28;20427;-69
2022/02/14 11:13:29;;;;;;;;;;;;;;;-144.99;59.17;52566.31;5072773;28;20478;-69
2022/02/14 11:15:56;;;;;;;;;;;;;;;-144.99;59.38;52562.25;5068146;28;19975;-69
2022/02/14 11:18:26;;;;;;;;;;;;;;;-144.99;59.69;52537.78;5079639;28;19982;-70
2022/02/14 11:20:52;;;;;;;;;;;;;;;-144.99;59.86;52545.94;5072862;28;20037;-68
2022/02/14 11:23:19;;;;;;;;;;;;;;;-144.99;60.36;52541.84;5068488;28;19992;-68
2022/02/14 11:25:50;;;;;;;;;;;;;;;-144.99;60.31;52537.78;5078078;28;19978;-68
2022/02/14 11:28:22;;;;;;;;;;;;;;;-144.99;60.45;52497.00;5073834;28;19975;-70
2022/02/14 11:30:48;;;;;;;;;;;;;;;-144.99;60.70;52505.16;5076284;28;20495;-68
2022/02/14 11:33:20;;;;;;;;;;;;;;;-144.99;60.79;52499.06;5081466;28;19999;-67
2022/02/14 11:35:57;;;;;;;;;;;;;;;-144.99;60.87;52501.09;5072290;28;20014;-68
2022/02/14 11:38:39;;;;;;;;;;;;;;;-144.99;61.02;52554.09;5073297;28;20001;-67
2022/02/14 11:41:20;;;;;;;;;;;;;;;-144.99;61.21;52499.06;5079844;28;20469;-69
2022/02/14 11:43:47;;;;;;;;;;;;;;;-144.99;61.42;52550.00;5071063;28;19991;-71
2022/02/14 11:46:18;;;;;;;;;;;;;;;-144.99;61.42;52529.63;5070651;28;19971;-69
2022/02/14 11:48:45;;;;;;;;;;;;;;;-144.99;61.38;52541.84;5072691;28;20036;-69
2022/02/14 11:51:13;;;;;;;;;;;;;;;-144.99;61.64;52505.16;5060998;28;20362;-70
2022/02/14 11:53:41;;;;;;;;;;;;;;;-144.99;61.58;52529.63;5083684;28;19990;-69
2022/02/14 11:56:24;;;;;;;;;;;;;;;-144.99;62.08;52517.41;5069014;28;20041;-69
2022/02/14 11:59:01;;;;;;;;;;;;;;;-144.99;62.08;52497.00;5069725;28;19975;-68
2022/02/14 12:01:28;;;;;;;;;;;;;;;-144.99;62.12;52525.56;5070733;28;20323;-70
2022/02/14 12:03:57;;;;;;;;;;;;;;;-144.99;62.06;52556.13;5072846;28;19990;-69
2022/02/14 12:06:24;;;;;;;;;;;;;;;-144.99;62.21;52488.84;5077073;28;20059;-70
2022/02/14 12:08:58;;;;;;;;;;;;;;;-144.99;62.37;52554.09;5074269;28;20343;-69
2022/02/14 12:11:39;;;;;;;;;;;;;;;-144.99;62.48;52527.59;5067080;28;19990;-70
2022/02/14 12:14:16;;;;;;;;;;;;;;;-144.99;62.58;52511.28;5077815;28;19986;-70
2022/02/14 12:22:31;;;;;;;;;;;;;;;-144.99;63.14;52541.84;5073955;28;20102;-67
2022/02/14 12:24:57;;;;;;;;;;;;;;;-144.99;63.20;52537.78;5078217;28;20452;-67
2022/02/14 12:27:24;;;;;;;;;;;;;;;-144.99;63.32;52584.66;5067725;28;19980;-68
2022/02/14 12:29:51;;;;;;;;;;;;;;;-144.99;63.72;52533.69;5062685;28;19981;-67
2022/02/14 12:32:18;;;;;;;;;;;;;;;-144.99;63.66;52562.25;5069153;28;20577;-67
2022/02/14 12:34:45;;;;;;;;;;;;;;;-144.99;63.86;52519.44;5073300;28;20065;-66